ProRodeoTv.Com
Red

PRCA Stock Statistics

SEARCH BY:
Stock Rodeo Contestant Stock Contractor

Brennon Eldred

EVENT:
Unofficial results reflect placement at time of Web posting and can change.

SEASON BREAKDOWN

Season Attempts Qual Rides Re-rides Ride %
2017 66 29 0 43.94 %
2016 94 48 0 51.06 %
2015 81 32 0 39.51 %
2014 93 30 0 32.26 %
Totals 334 139 0 0.00 %

RODEO DETAIL

Date Location Rodeo SC Brand Ride Comments Stock Score Contestant Score
9/22/2017 Oklahoma City, OK Division 2 Qualifying Event Xtreme Bulls PR B1 0.00 22.00 / 22.50 0.00 / 0.00
9/15/2017 Tyler, TX Rose City Roundup UP 369 0.00 22.00 / 22.00 0.00 / 0.00
9/13/2017 Texarkana, AR Four States Fair and Rodeo Xtreme Bulls SS Z21 86.00 21.00 / 21.00 22.00 / 22.00
9/12/2017 Abilene, TX West Texas Fair & Rodeo BU 1113 86.00 21.00 / 21.00 22.00 / 22.00
9/7/2017 Fort Madison, IA Tri-State Rodeo CB 111 0.00 20.50 / 21.50 0.00 / 0.00
9/1/2017 Elk City, OK Elk City Rodeo Of Champions BU 322 0.00 19.00 / 20.00 0.00 / 0.00
8/25/2017 Vinita, OK Will Rogers Memorial Rodeo RH 901 0.00 22.00 / 21.00 0.00 / 0.00
8/25/2017 San Juan Capistrano, CA Rancho Mission Viejo Rodeo FU K649/0 0.00 21.00 / 22.00 0.00 / 0.00
8/24/2017 Altus, OK Great Plains Stampede Rodeo AN 143 89.00 22.00 / 21.50 23.00 / 22.50
8/23/2017 Alex, OK Doxa Extreme Rodeo BF 295 0.00 22.00 / 21.50 0.00 / 0.00
8/17/2017 Coffeyville, KS Inter-State Rodeo BU 246 86.00 21.00 / 21.00 22.00 / 22.00
8/15/2017 Caldwell, ID Caldwell Night Rodeo PR 26Y 88.00 22.00 / 21.50 23.00 / 21.50
8/10/2017 Lawton, OK Lawton Rangers Rodeo BU 06 0.00 22.00 / 21.00 0.00 / 0.00
8/9/2017 Lovington, NM Lea County Fair & PRCA Rodeo SR 419 86.00 21.00 / 21.00 22.00 / 22.00
8/8/2017 Lovington, NM Lea County Fair & PRCA Rodeo Xtreme Bulls PC J11 0.00 18.00 / 19.00 0.00 / 0.00
8/5/2017 Sidney, IA Iowa s Championship Rodeo CC 264 0.00 20.00 / 21.50 0.00 / 0.00
8/4/2017 Dodge City, KS Dodge City Roundup Rodeo FL 271 0.00 21.50 / 21.00 0.00 / 0.00
8/3/2017 Phillipsburg, KS Kansas Biggest Rodeo BU -752 0.00 22.00 / 21.50 0.00 / 0.00
8/2/2017 Abilene, KS Wild Bill Hickok Rodeo AN F12 0.00 22.00 / 21.50 0.00 / 0.00
8/1/2017 Dodge City, KS Dodge City Roundup Xtreme Bulls JK 1000Z 0.00 22.00 / 22.00 0.00 / 0.00
7/28/2017 Burlington, CO Kit Carson County Fair & Rodeo RM 304 83.00 20.00 / 20.00 22.00 / 21.00
7/27/2017 Burwell, NE Nebraska s Big Rodeo BU 256 82.00 20.00 / 20.00 21.00 / 21.00
7/22/2017 Cheyenne, WY Cheyenne Frontier Days DK 285 0.00 20.00 / 22.00 0.00 / 0.00
7/21/2017 Salt Lake City, UT Day s of 47 Cowboy Games and Rodeo DG T805 81.00 19.50 / 20.50 19.50 / 21.50
7/21/2017 Cheyenne, WY Cheyenne Frontier Days SH 093 0.00 23.00 / 24.00 0.00 / 0.00
Page of 3
Per Page
 
 
 
Copyright © 2017 Professional Rodeo Cowboys Association. All rights reserved. No portion of ProRodeo.com may be duplicated, redistributed or manipulated in any form. By accessing any information beyond this page, you agree to abide by the Terms of Use.
PRCA Wrangler National Finals Rodeo Wrangler Champions Challenge Justin Boots Playoffs Xtreme Bulls RAM National Circuit Finals Rodeo ProRodeo Gear ProRodeoTv.com var gaJsHost = (("https:" == document.location.protocol) ? "https://ssl." : "http://www."); document.write(unescape("%3Cscript src='" + gaJsHost + "google-analytics.com/ga.js' type='text/javascript'%3E%3C/script%3E"));